Time,TemperatureF,DewpointF,PressureIn,WindDirection,WindDirectionDegrees,WindSpeedMPH,WindSpeedGustMPH,Humidity,HourlyPrecipIn,Conditions,Clouds,dailyrainin,SoftwareType,DateUTC
2013-03-04 00:00:00,27.3,2.0,28.88,NNE,24,0.0,2.7,33,0.00,,---,0.00,VWS V14.01,2013-03-04 05:00:00,
2013-03-04 00:05:00,27.3,2.0,28.88,North,6,0.0,3.6,33,0.00,,---,0.00,VWS V14.01,2013-03-04 05:05:00,
2013-03-04 00:06:00,27.1,1.9,28.88,North,351,3.6,5.4,33,0.00,,---,0.00,VWS V14.01,2013-03-04 05:06:00,
2013-03-04 00:11:00,27.1,1.9,28.88,North,2,2.7,3.6,33,0.00,,---,0.00,VWS V14.01,2013-03-04 05:11:00,
2013-03-04 00:16:00,27.1,1.9,28.88,WNW,291,0.0,4.0,33,0.00,,---,0.00,VWS V14.01,2013-03-04 05:16:00,
2013-03-04 00:22:00,27.1,1.9,28.88,North,5,0.0,3.6,33,0.00,,---,0.00,VWS V14.01,2013-03-04 05:22:00,
2013-03-04 00:23:00,27.0,1.7,28.88,North,5,0.0,0.0,33,0.00,,---,0.00,VWS V14.01,2013-03-04 05:23:00,
2013-03-04 00:28:00,27.1,1.9,28.88,ENE,77,0.0,0.0,33,0.00,,---,0.00,VWS V14.01,2013-03-04 05:28:00,
2013-03-04 00:33:00,27.0,1.7,28.88,North,3,4.0,4.0,33,0.00,,---,0.00,VWS V14.01,2013-03-04 05:33:00,
2013-03-04 00:38:00,27.0,1.0,28.88,NW,309,0.0,0.0,32,0.00,,---,0.00,VWS V14.01,2013-03-04 05:38:00,
2013-03-04 00:43:00,27.0,1.0,28.88,North,351,2.7,4.0,32,0.00,,---,0.00,VWS V14.01,2013-03-04 05:43:00,
2013-03-04 00:48:00,27.0,1.0,28.88,North,351,0.0,0.0,32,0.00,,---,0.00,VWS V14.01,2013-03-04 05:48:00,
2013-03-04 00:53:00,26.8,0.9,28.88,NNE,23,0.0,3.1,32,0.00,,---,0.00,VWS V14.01,2013-03-04 05:53:00,
2013-03-04 00:58:00,27.0,1.0,28.88,SSE,151,4.9,4.9,32,0.00,,---,0.00,VWS V14.01,2013-03-04 05:58:00,
2013-03-04 01:03:00,27.0,1.0,28.88,NNW,328,0.0,0.0,32,0.00,,---,0.00,VWS V14.01,2013-03-04 06:03:00,
2013-03-04 01:08:00,26.8,0.9,28.88,NNW,332,0.0,0.0,32,0.00,,---,0.00,VWS V14.01,2013-03-04 06:08:00,
2013-03-04 01:13:00,26.8,0.9,28.88,NNW,332,0.0,0.0,32,0.00,,---,0.00,VWS V14.01,2013-03-04 06:13:00,
2013-03-04 01:18:00,26.8,0.9,28.88,NNW,332,0.0,0.0,32,0.00,,---,0.00,VWS V14.01,2013-03-04 06:18:00,
2013-03-04 01:23:00,26.8,0.9,28.88,North,0,0.0,0.0,32,0.00,,---,0.00,VWS V14.01,2013-03-04 06:23:00,
2013-03-04 01:28:00,26.8,0.9,28.88,North,351,0.0,0.0,32,0.00,,---,0.00,VWS V14.01,2013-03-04 06:28:00,
2013-03-04 01:33:00,26.8,0.9,28.88,North,351,0.0,0.0,32,0.00,,---,0.00,VWS V14.01,2013-03-04 06:33:00,
2013-03-04 01:38:00,26.6,0.7,28.88,North,7,2.7,3.1,32,0.00,,---,0.00,VWS V14.01,2013-03-04 06:38:00,
2013-03-04 01:43:00,26.6,0.7,28.88,North,3,0.0,0.0,32,0.00,,---,0.00,VWS V14.01,2013-03-04 06:43:00,
2013-03-04 01:48:00,26.8,0.9,28.88,North,2,0.0,0.0,32,0.00,,---,0.00,VWS V14.01,2013-03-04 06:48:00,
2013-03-04 01:53:00,26.8,0.9,28.88,North,2,0.0,0.0,32,0.00,,---,0.00,VWS V14.01,2013-03-04 06:53:00,
2013-03-04 01:58:00,26.8,0.9,28.88,NE,52,0.0,0.0,32,0.00,,---,0.00,VWS V14.01,2013-03-04 06:58:00,
2013-03-04 02:03:00,26.8,0.9,28.88,NE,52,0.0,0.0,32,0.00,,---,0.00,VWS V14.01,2013-03-04 07:03:00,
2013-03-04 02:08:00,26.8,0.9,28.88,NE,52,0.0,0.0,32,0.00,,---,0.00,VWS V14.01,2013-03-04 07:08:00,
2013-03-04 02:13:00,26.6,0.7,28.88,North,351,0.0,0.0,32,0.00,,---,0.00,VWS V14.01,2013-03-04 07:13:00,
2013-03-04 02:18:00,26.6,0.7,28.88,North,351,0.0,0.0,32,0.00,,---,0.00,VWS V14.01,2013-03-04 07:18:00,
2013-03-04 02:23:00,26.6,0.7,28.88,North,11,3.1,3.1,32,0.00,,---,0.00,VWS V14.01,2013-03-04 07:23:00,
2013-03-04 02:28:00,26.6,0.7,28.88,North,3,0.0,0.0,32,0.00,,---,0.00,VWS V14.01,2013-03-04 07:28:00,
2013-03-04 02:33:00,26.6,0.7,28.88,North,5,0.0,0.0,32,0.00,,---,0.00,VWS V14.01,2013-03-04 07:33:00,
2013-03-04 02:38:00,26.4,0.6,28.88,NNE,22,0.0,0.0,32,0.00,,---,0.00,VWS V14.01,2013-03-04 07:38:00,
2013-03-04 02:43:00,26.4,0.6,28.88,North,351,0.0,0.0,32,0.00,,---,0.00,VWS V14.01,2013-03-04 07:43:00,
2013-03-04 02:48:00,26.4,0.6,28.88,North,351,0.0,0.0,32,0.00,,---,0.00,VWS V14.01,2013-03-04 07:48:00,
2013-03-04 02:53:00,26.4,0.6,28.88,North,351,0.0,0.0,32,0.00,,---,0.00,VWS V14.01,2013-03-04 07:53:00,
2013-03-04 02:58:00,26.4,0.6,28.88,NW,314,0.0,0.0,32,0.00,,---,0.00,VWS V14.01,2013-03-04 07:58:00,
2013-03-04 03:03:00,26.4,0.6,28.88,North,0,0.0,0.0,32,0.00,,---,0.00,VWS V14.01,2013-03-04 08:03:00,
2013-03-04 03:08:00,26.2,0.4,28.88,North,0,0.0,2.7,32,0.00,,---,0.00,VWS V14.01,2013-03-04 08:08:00,
2013-03-04 03:13:00,26.2,0.4,28.88,North,4,0.0,0.0,32,0.00,,---,0.00,VWS V14.01,2013-03-04 08:13:00,
2013-03-04 03:18:00,26.4,0.6,28.88,North,3,0.0,0.0,32,0.00,,---,0.00,VWS V14.01,2013-03-04 08:18:00,
2013-03-04 03:23:00,26.2,0.4,28.88,North,4,0.0,0.0,32,0.00,,---,0.00,VWS V14.01,2013-03-04 08:23:00,
2013-03-04 03:28:00,26.2,0.4,28.88,North,1,0.0,0.0,32,0.00,,---,0.00,VWS V14.01,2013-03-04 08:28:00,
2013-03-04 03:33:00,26.2,0.4,28.88,North,1,0.0,0.0,32,0.00,,---,0.00,VWS V14.01,2013-03-04 08:33:00,
2013-03-04 03:38:00,26.2,0.4,28.88,North,351,0.0,4.0,32,0.00,,---,0.00,VWS V14.01,2013-03-04 08:38:00,
2013-03-04 03:43:00,26.2,0.4,28.88,NE,56,0.0,0.0,32,0.00,,---,0.00,VWS V14.01,2013-03-04 08:43:00,
2013-03-04 03:48:00,26.2,0.4,28.88,North,4,0.0,0.0,32,0.00,,---,0.00,VWS V14.01,2013-03-04 08:48:00,
2013-03-04 03:53:00,26.2,0.4,28.88,North,6,0.0,0.0,32,0.00,,---,0.00,VWS V14.01,2013-03-04 08:53:00,
2013-03-04 03:58:00,26.2,0.4,28.88,North,6,0.0,0.0,32,0.00,,---,0.00,VWS V14.01,2013-03-04 08:58:00,
2013-03-04 04:03:00,26.2,0.4,28.88,North,3,0.0,4.0,32,0.00,,---,0.00,VWS V14.01,2013-03-04 09:03:00,
2013-03-04 04:08:00,26.2,0.4,28.88,North,10,0.0,0.0,32,0.00,,---,0.00,VWS V14.01,2013-03-04 09:08:00,
2013-03-04 04:13:00,26.2,0.4,28.88,North,2,3.6,4.5,32,0.00,,---,0.00,VWS V14.01,2013-03-04 09:13:00,
2013-03-04 04:18:00,26.2,1.1,28.88,North,0,0.0,4.0,33,0.00,,---,0.00,VWS V14.01,2013-03-04 09:18:00,
2013-03-04 04:23:00,26.2,1.1,28.88,North,3,0.0,4.9,33,0.00,,---,0.00,VWS V14.01,2013-03-04 09:23:00,
2013-03-04 04:28:00,26.2,1.1,28.88,North,5,3.6,3.6,33,0.00,,---,0.00,VWS V14.01,2013-03-04 09:28:00,
2013-03-04 04:33:00,26.2,1.1,28.88,North,2,2.7,4.5,33,0.00,,---,0.00,VWS V14.01,2013-03-04 09:33:00,
2013-03-04 04:38:00,26.2,1.1,28.88,NNW,333,0.0,3.6,33,0.00,,---,0.00,VWS V14.01,2013-03-04 09:38:00,
2013-03-04 04:43:00,26.2,1.1,28.88,North,11,0.0,0.0,33,0.00,,---,0.00,VWS V14.01,2013-03-04 09:43:00,
2013-03-04 04:48:00,26.2,1.1,28.88,North,0,3.6,4.0,33,0.00,,---,0.00,VWS V14.01,2013-03-04 09:48:00,
2013-03-04 04:53:00,26.1,0.9,28.88,NNW,346,0.0,0.0,33,0.00,,---,0.00,VWS V14.01,2013-03-04 09:53:00,
2013-03-04 04:58:00,26.1,0.9,28.88,NNW,343,4.0,4.9,33,0.00,,---,0.00,VWS V14.01,2013-03-04 09:58:00,
2013-03-04 05:03:00,26.1,0.9,28.88,North,351,0.0,0.0,33,0.00,,---,0.00,VWS V14.01,2013-03-04 10:03:00,
2013-03-04 05:08:00,25.9,1.4,28.88,NNE,33,0.0,0.0,34,0.00,,---,0.00,VWS V14.01,2013-03-04 10:08:00,
2013-03-04 05:13:00,25.9,1.4,28.88,North,2,0.0,4.0,34,0.00,,---,0.00,VWS V14.01,2013-03-04 10:13:00,
2013-03-04 05:18:00,25.9,1.4,28.88,North,7,4.5,4.9,34,0.00,,---,0.00,VWS V14.01,2013-03-04 10:18:00,
2013-03-04 05:23:00,25.9,1.4,28.88,North,9,4.0,4.5,34,0.00,,---,0.00,VWS V14.01,2013-03-04 10:23:00,
2013-03-04 05:28:00,25.7,1.9,28.88,North,8,5.4,6.7,35,0.00,,---,0.00,VWS V14.01,2013-03-04 10:28:00,
2013-03-04 05:33:00,25.7,1.2,28.88,North,351,0.0,4.5,34,0.00,,---,0.00,VWS V14.01,2013-03-04 10:33:00,
2013-03-04 05:38:00,25.7,1.2,28.88,North,8,3.6,5.4,34,0.00,,---,0.00,VWS V14.01,2013-03-04 10:38:00,
2013-03-04 05:43:00,25.7,1.9,28.88,NNW,340,4.5,4.5,35,0.00,,---,0.00,VWS V14.01,2013-03-04 10:43:00,
2013-03-04 05:48:00,25.7,1.9,28.88,North,351,2.7,4.9,35,0.00,,---,0.00,VWS V14.01,2013-03-04 10:48:00,
2013-03-04 05:53:00,25.7,1.9,28.88,NNE,13,0.0,0.0,35,0.00,,---,0.00,VWS V14.01,2013-03-04 10:53:00,
2013-03-04 05:58:00,25.7,1.9,28.88,ENE,63,2.7,4.0,35,0.00,,---,0.00,VWS V14.01,2013-03-04 10:58:00,
2013-03-04 06:03:00,25.5,2.3,28.88,NNE,16,3.1,5.4,36,0.00,,---,0.00,VWS V14.01,2013-03-04 11:03:00,
2013-03-04 06:08:00,25.5,2.3,28.88,North,351,3.6,4.0,36,0.00,,---,0.00,VWS V14.01,2013-03-04 11:08:00,
2013-03-04 06:13:00,25.5,2.3,28.88,North,351,0.0,0.0,36,0.00,,---,0.00,VWS V14.01,2013-03-04 11:13:00,
2013-03-04 06:18:00,25.5,2.3,28.91,North,5,0.0,3.1,36,0.00,,---,0.00,VWS V14.01,2013-03-04 11:18:00,
2013-03-04 06:23:00,25.5,2.9,28.91,North,1,0.0,0.0,37,0.00,,---,0.00,VWS V14.01,2013-03-04 11:23:00,
2013-03-04 06:28:00,25.5,2.3,28.91,NNE,12,2.7,4.9,36,0.00,,---,0.00,VWS V14.01,2013-03-04 11:28:00,
2013-03-04 06:33:00,25.7,3.6,28.91,NNW,340,2.7,4.0,38,0.00,,---,0.00,VWS V14.01,2013-03-04 11:33:00,
2013-03-04 06:38:00,25.7,3.6,28.91,NNW,340,0.0,0.0,38,0.00,,---,0.00,VWS V14.01,2013-03-04 11:38:00,
2013-03-04 06:43:00,26.1,4.5,28.91,North,2,0.0,0.0,39,0.00,,---,0.00,VWS V14.01,2013-03-04 11:43:00,
2013-03-04 06:48:00,26.2,4.7,28.91,North,8,3.6,5.8,39,0.00,,---,0.00,VWS V14.01,2013-03-04 11:48:00,
2013-03-04 06:53:00,26.4,4.8,28.91,North,351,2.7,4.5,39,0.00,,---,0.00,VWS V14.01,2013-03-04 11:53:00,
2013-03-04 06:58:00,26.8,5.2,28.91,North,9,2.7,4.5,39,0.00,,---,0.00,VWS V14.01,2013-03-04 11:58:00,
2013-03-04 07:03:00,27.1,4.9,28.91,North,8,0.0,0.0,38,0.00,,---,0.00,VWS V14.01,2013-03-04 12:03:00,
2013-03-04 07:08:00,27.3,4.5,28.91,ESE,106,0.0,0.0,37,0.00,,---,0.00,VWS V14.01,2013-03-04 12:08:00,
2013-03-04 07:13:00,27.5,4.1,28.91,NE,53,0.0,0.0,36,0.00,,---,0.00,VWS V14.01,2013-03-04 12:13:00,
2013-03-04 07:18:00,27.7,3.6,28.91,East,92,0.0,0.0,35,0.00,,---,0.00,VWS V14.01,2013-03-04 12:18:00,
2013-03-04 07:23:00,28.0,3.9,28.91,North,3,2.7,3.6,35,0.00,,---,0.00,VWS V14.01,2013-03-04 12:23:00,
2013-03-04 07:28:00,28.4,4.2,28.91,North,351,0.0,4.0,35,0.00,,---,0.00,VWS V14.01,2013-03-04 12:28:00,
2013-03-04 07:33:00,29.1,4.3,28.91,North,8,3.1,4.0,34,0.00,,---,0.00,VWS V14.01,2013-03-04 12:33:00,
2013-03-04 07:38:00,29.3,3.8,28.91,North,351,3.1,3.1,33,0.00,,---,0.00,VWS V14.01,2013-03-04 12:38:00,
2013-03-04 07:43:00,29.7,3.4,28.91,North,0,0.0,4.0,32,0.00,,---,0.00,VWS V14.01,2013-03-04 12:43:00,
2013-03-04 07:48:00,29.5,3.3,28.91,WNW,303,4.0,4.0,32,0.00,,---,0.00,VWS V14.01,2013-03-04 12:48:00,
2013-03-04 07:53:00,29.3,3.1,28.91,East,83,0.0,0.0,32,0.00,,---,0.00,VWS V14.01,2013-03-04 12:53:00,
2013-03-04 07:58:00,29.1,3.0,28.91,SE,144,0.0,0.0,32,0.00,,---,0.00,VWS V14.01,2013-03-04 12:58:00,
2013-03-04 08:03:00,28.9,2.8,28.91,ENE,69,0.0,0.0,32,0.00,,---,0.00,VWS V14.01,2013-03-04 13:03:00,
2013-03-04 08:08:00,29.1,3.6,28.91,NNW,333,0.0,4.5,33,0.00,,---,0.00,VWS V14.01,2013-03-04 13:08:00,
2013-03-04 08:13:00,29.1,3.6,28.91,NW,324,0.0,3.6,33,0.00,,---,0.00,VWS V14.01,2013-03-04 13:13:00,
2013-03-04 08:18:00,29.5,3.3,28.91,NNW,334,0.0,2.7,32,0.00,,---,0.00,VWS V14.01,2013-03-04 13:18:00,
2013-03-04 08:23:00,29.7,3.4,28.91,NNW,329,0.0,0.0,32,0.00,,---,0.00,VWS V14.01,2013-03-04 13:23:00,
2013-03-04 08:28:00,29.7,3.4,28.91,North,351,0.0,4.0,32,0.00,,---,0.00,VWS V14.01,2013-03-04 13:28:00,
2013-03-04 08:33:00,30.2,3.9,28.91,SE,146,3.1,4.9,32,0.00,,---,0.00,VWS V14.01,2013-03-04 13:33:00,
2013-03-04 08:38:00,30.7,4.4,28.91,ESE,113,4.0,4.0,32,0.00,,---,0.00,VWS V14.01,2013-03-04 13:38:00,
2013-03-04 08:43:00,30.7,3.7,28.91,NNW,339,0.0,2.7,31,0.00,,---,0.00,VWS V14.01,2013-03-04 13:43:00,
2013-03-04 08:48:00,30.6,3.5,28.91,NE,39,0.0,4.5,31,0.00,,---,0.00,VWS V14.01,2013-03-04 13:48:00,
2013-03-04 08:53:00,30.7,3.7,28.91,North,0,3.1,3.1,31,0.00,,---,0.00,VWS V14.01,2013-03-04 13:53:00,
2013-03-04 08:58:00,31.1,4.0,28.91,NE,55,0.0,0.0,31,0.00,,---,0.00,VWS V14.01,2013-03-04 13:58:00,
2013-03-04 09:03:00,31.3,3.5,28.91,North,351,0.0,3.1,30,0.00,,---,0.00,VWS V14.01,2013-03-04 14:03:00,
2013-03-04 09:08:00,32.4,4.4,28.91,NE,39,0.0,2.7,30,0.00,,---,0.00,VWS V14.01,2013-03-04 14:08:00,
2013-03-04 09:13:00,32.7,4.7,28.91,ENE,77,4.5,4.5,30,0.00,,---,0.00,VWS V14.01,2013-03-04 14:13:00,
2013-03-04 09:18:00,33.3,2.9,28.91,SE,132,2.7,4.0,27,0.00,,---,0.00,VWS V14.01,2013-03-04 14:18:00,
2013-03-04 09:23:00,33.8,3.4,28.91,East,84,0.0,3.6,27,0.00,,---,0.00,VWS V14.01,2013-03-04 14:23:00,
2013-03-04 09:28:00,34.3,3.8,28.91,North,351,0.0,3.6,27,0.00,,---,0.00,VWS V14.01,2013-03-04 14:28:00,
2013-03-04 09:33:00,34.5,2.3,28.91,North,5,3.6,4.0,25,0.00,,---,0.00,VWS V14.01,2013-03-04 14:33:00,
2013-03-04 09:38:00,34.7,1.6,28.91,ENE,64,0.0,3.1,24,0.00,,---,0.00,VWS V14.01,2013-03-04 14:38:00,
2013-03-04 09:43:00,35.1,1.9,28.91,SSE,161,0.0,4.0,24,0.00,,---,0.00,VWS V14.01,2013-03-04 14:43:00,
2013-03-04 09:48:00,34.9,1.8,28.91,NE,47,3.6,6.9,24,0.00,,---,0.00,VWS V14.01,2013-03-04 14:48:00,
2013-03-04 09:53:00,35.4,2.2,28.91,NNE,14,0.0,4.0,24,0.00,,---,0.00,VWS V14.01,2013-03-04 14:53:00,
2013-03-04 09:58:00,36.0,2.7,28.91,NE,54,2.7,2.7,24,0.00,,---,0.00,VWS V14.01,2013-03-04 14:58:00,
2013-03-04 10:03:00,36.1,1.0,28.91,NNE,19,3.1,4.9,22,0.00,,---,0.00,VWS V14.01,2013-03-04 15:03:00,
2013-03-04 10:08:00,36.3,1.1,28.91,ENE,66,0.0,4.0,22,0.00,,---,0.00,VWS V14.01,2013-03-04 15:08:00,
2013-03-04 10:13:00,36.5,1.3,28.91,NNE,31,3.1,4.9,22,0.00,,---,0.00,VWS V14.01,2013-03-04 15:13:00,
2013-03-04 10:18:00,36.3,1.1,28.91,SSE,163,3.1,4.9,22,0.00,,---,0.00,VWS V14.01,2013-03-04 15:18:00,
2013-03-04 10:23:00,36.1,1.0,28.91,ENE,75,2.7,4.9,22,0.00,,---,0.00,VWS V14.01,2013-03-04 15:23:00,
2013-03-04 10:28:00,36.3,1.1,28.91,North,11,2.7,4.5,22,0.00,,---,0.00,VWS V14.01,2013-03-04 15:28:00,
2013-03-04 10:33:00,36.9,0.6,28.91,NNW,342,0.0,3.6,21,0.00,,---,0.00,VWS V14.01,2013-03-04 15:33:00,
2013-03-04 10:38:00,36.7,0.4,28.91,ENE,60,3.1,4.5,21,0.00,,---,0.00,VWS V14.01,2013-03-04 15:38:00,
2013-03-04 10:43:00,37.0,0.7,28.91,NE,45,0.0,5.4,21,0.00,,---,0.00,VWS V14.01,2013-03-04 15:43:00,
2013-03-04 10:48:00,36.9,0.6,28.91,ESE,104,3.1,3.1,21,0.00,,---,0.00,VWS V14.01,2013-03-04 15:48:00,
2013-03-04 10:53:00,37.4,1.0,28.91,North,4,3.6,4.0,21,0.00,,---,0.00,VWS V14.01,2013-03-04 15:53:00,
2013-03-04 10:58:00,36.7,0.4,28.91,SW,228,0.0,0.0,21,0.00,,---,0.00,VWS V14.01,2013-03-04 15:58:00,
2013-03-04 11:03:00,36.9,0.6,28.91,North,7,0.0,4.9,21,0.00,,---,0.00,VWS V14.01,2013-03-04 16:03:00,
2013-03-04 11:08:00,37.9,1.5,28.91,NNW,338,0.0,4.0,21,0.00,,---,0.00,VWS V14.01,2013-03-04 16:08:00,
2013-03-04 11:13:00,38.3,1.8,28.91,North,9,2.7,3.6,21,0.00,,---,0.00,VWS V14.01,2013-03-04 16:13:00,
2013-03-04 11:18:00,38.3,1.8,28.91,ENE,64,2.7,4.0,21,0.00,,---,0.00,VWS V14.01,2013-03-04 16:18:00,
2013-03-04 11:23:00,37.9,1.5,28.91,NNW,344,0.0,6.3,21,0.00,,---,0.00,VWS V14.01,2013-03-04 16:23:00,
2013-03-04 11:28:00,37.9,1.5,28.91,SE,146,2.7,4.9,21,0.00,,---,0.00,VWS V14.01,2013-03-04 16:28:00,
2013-03-04 11:33:00,37.9,1.5,28.91,ENE,60,2.7,4.0,21,0.00,,---,0.00,VWS V14.01,2013-03-04 16:33:00,
2013-03-04 11:38:00,38.3,1.8,28.91,NNE,21,0.0,4.0,21,0.00,,---,0.00,VWS V14.01,2013-03-04 16:38:00,
2013-03-04 11:43:00,37.9,1.5,28.91,NNE,13,0.0,5.8,21,0.00,,---,0.00,VWS V14.01,2013-03-04 16:43:00,
2013-03-04 11:48:00,38.1,1.6,28.91,NE,53,3.6,5.8,21,0.00,,---,0.00,VWS V14.01,2013-03-04 16:48:00,
2013-03-04 11:53:00,38.1,1.6,28.91,NW,318,3.1,6.3,21,0.00,,---,0.00,VWS V14.01,2013-03-04 16:53:00,
2013-03-04 11:58:00,37.0,0.7,28.91,East,88,0.0,2.7,21,0.00,,---,0.00,VWS V14.01,2013-03-04 16:58:00,
2013-03-04 12:03:00,36.7,0.4,28.91,NE,36,2.7,4.0,21,0.00,,---,0.00,VWS V14.01,2013-03-04 17:03:00,
2013-03-04 12:08:00,37.2,0.9,28.91,East,81,0.0,4.9,21,0.00,,---,0.00,VWS V14.01,2013-03-04 17:08:00,
2013-03-04 12:13:00,37.9,1.5,28.91,ENE,63,6.3,6.3,21,0.00,,---,0.00,VWS V14.01,2013-03-04 17:13:00,
2013-03-04 12:18:00,38.5,2.0,28.88,NNW,329,4.5,4.9,21,0.00,,---,0.00,VWS V14.01,2013-03-04 17:18:00,
2013-03-04 12:23:00,38.7,2.1,28.88,NNE,24,4.0,4.5,21,0.00,,---,0.00,VWS V14.01,2013-03-04 17:23:00,
2013-03-04 12:28:00,38.8,2.3,28.88,NNW,341,3.6,3.6,21,0.00,,---,0.00,VWS V14.01,2013-03-04 17:28:00,
2013-03-04 12:33:00,39.2,2.6,28.88,East,98,0.0,0.0,21,0.00,,---,0.00,VWS V14.01,2013-03-04 17:33:00,
2013-03-04 12:38:00,39.4,2.7,28.88,NE,46,3.1,4.0,21,0.00,,---,0.00,VWS V14.01,2013-03-04 17:38:00,
2013-03-04 12:43:00,39.4,2.7,28.88,North,351,0.0,6.9,21,0.00,,---,0.00,VWS V14.01,2013-03-04 17:43:00,
2013-03-04 12:48:00,39.0,2.4,28.88,North,4,3.6,6.3,21,0.00,,---,0.00,VWS V14.01,2013-03-04 17:48:00,
2013-03-04 12:53:00,39.4,2.7,28.88,NNE,23,2.7,4.5,21,0.00,,---,0.00,VWS V14.01,2013-03-04 17:53:00,
2013-03-04 12:58:00,38.8,2.3,28.88,North,8,0.0,3.1,21,0.00,,---,0.00,VWS V14.01,2013-03-04 17:58:00,
2013-03-04 13:03:00,38.8,2.3,28.88,ESE,110,0.0,4.9,21,0.00,,---,0.00,VWS V14.01,2013-03-04 18:03:00,
2013-03-04 13:08:00,38.8,2.3,28.88,ENE,68,0.0,4.0,21,0.00,,---,0.00,VWS V14.01,2013-03-04 18:08:00,
2013-03-04 13:13:00,38.7,2.1,28.88,North,0,0.0,4.0,21,0.00,,---,0.00,VWS V14.01,2013-03-04 18:13:00,
2013-03-04 13:18:00,38.1,1.6,28.88,NW,324,6.7,6.7,21,0.00,,---,0.00,VWS V14.01,2013-03-04 18:18:00,
2013-03-04 13:23:00,38.1,1.6,28.88,North,351,4.0,4.9,21,0.00,,---,0.00,VWS V14.01,2013-03-04 18:23:00,
2013-03-04 13:28:00,37.9,1.5,28.88,North,6,0.0,0.0,21,0.00,,---,0.00,VWS V14.01,2013-03-04 18:28:00,
2013-03-04 13:30:00,37.9,1.5,28.88,East,97,3.1,5.4,21,0.00,,---,0.00,VWS V14.01,2013-03-04 18:30:00,
2013-03-04 13:31:00,37.9,1.5,28.88,North,0,0.0,4.5,21,0.00,,---,0.00,VWS V14.01,2013-03-04 18:31:00,
2013-03-04 13:36:00,37.8,1.4,28.88,NNE,13,3.1,4.0,21,0.00,,---,0.00,VWS V14.01,2013-03-04 18:36:00,
2013-03-04 13:41:00,37.8,1.4,28.88,ENE,78,0.0,4.0,21,0.00,,---,0.00,VWS V14.01,2013-03-04 18:41:00,
2013-03-04 13:46:00,37.8,1.4,28.88,North,0,2.7,6.3,21,0.00,,---,0.00,VWS V14.01,2013-03-04 18:46:00,
2013-03-04 13:51:00,37.8,1.4,28.88,NNW,347,2.7,4.0,21,0.00,,---,0.00,VWS V14.01,2013-03-04 18:51:00,
2013-03-04 13:56:00,38.1,1.6,28.88,North,7,0.0,5.4,21,0.00,,---,0.00,VWS V14.01,2013-03-04 18:56:00,
2013-03-04 14:01:00,38.1,1.6,28.88,NNW,340,4.9,5.8,21,0.00,,---,0.00,VWS V14.01,2013-03-04 19:01:00,
2013-03-04 14:06:00,38.1,1.6,28.88,ESE,117,2.7,5.4,21,0.00,,---,0.00,VWS V14.01,2013-03-04 19:06:00,
2013-03-04 14:11:00,38.3,1.8,28.88,North,7,3.1,3.1,21,0.00,,---,0.00,VWS V14.01,2013-03-04 19:11:00,
2013-03-04 14:16:00,38.5,2.0,28.88,NNW,342,4.0,4.0,21,0.00,,---,0.00,VWS V14.01,2013-03-04 19:16:00,
2013-03-04 14:21:00,38.1,1.6,28.88,ENE,71,2.7,4.5,21,0.00,,---,0.00,VWS V14.01,2013-03-04 19:21:00,
2013-03-04 14:26:00,37.8,1.4,28.88,North,1,4.0,5.4,21,0.00,,---,0.00,VWS V14.01,2013-03-04 19:26:00,
2013-03-04 14:31:00,37.2,0.9,28.88,NE,49,4.0,4.0,21,0.00,,---,0.00,VWS V14.01,2013-03-04 19:31:00,
2013-03-04 14:36:00,37.2,0.9,28.88,NNE,31,0.0,3.6,21,0.00,,---,0.00,VWS V14.01,2013-03-04 19:36:00,
2013-03-04 14:41:00,37.0,0.7,28.88,North,4,2.7,4.0,21,0.00,,---,0.00,VWS V14.01,2013-03-04 19:41:00,
2013-03-04 14:46:00,36.9,0.6,28.88,East,93,0.0,3.6,21,0.00,,---,0.00,VWS V14.01,2013-03-04 19:46:00,
2013-03-04 14:51:00,37.0,0.7,28.88,WNW,288,2.7,4.5,21,0.00,,---,0.00,VWS V14.01,2013-03-04 19:51:00,
2013-03-04 14:56:00,37.2,0.9,28.88,NE,45,0.0,2.7,21,0.00,,---,0.00,VWS V14.01,2013-03-04 19:56:00,
2013-03-04 15:01:00,37.6,1.2,28.88,North,351,3.6,5.8,21,0.00,,---,0.00,VWS V14.01,2013-03-04 20:01:00,
2013-03-04 15:06:00,37.8,1.4,28.88,East,87,3.6,4.5,21,0.00,,---,0.00,VWS V14.01,2013-03-04 20:06:00,
2013-03-04 15:11:00,37.6,1.2,28.88,SW,217,2.7,4.0,21,0.00,,---,0.00,VWS V14.01,2013-03-04 20:11:00,
2013-03-04 15:16:00,37.4,1.0,28.88,ESE,119,4.0,4.0,21,0.00,,---,0.00,VWS V14.01,2013-03-04 20:16:00,
2013-03-04 15:21:00,37.4,1.0,28.88,NNW,342,0.0,7.4,21,0.00,,---,0.00,VWS V14.01,2013-03-04 20:21:00,
2013-03-04 15:26:00,37.2,0.9,28.88,ESE,102,4.9,5.8,21,0.00,,---,0.00,VWS V14.01,2013-03-04 20:26:00,
2013-03-04 15:31:00,36.9,0.6,28.88,WNW,297,6.9,6.9,21,0.00,,---,0.00,VWS V14.01,2013-03-04 20:31:00,
2013-03-04 15:36:00,36.7,0.4,28.88,ENE,62,3.6,4.5,21,0.00,,---,0.00,VWS V14.01,2013-03-04 20:36:00,
2013-03-04 15:41:00,36.3,1.1,28.88,North,351,0.0,4.5,22,0.00,,---,0.00,VWS V14.01,2013-03-04 20:41:00,
2013-03-04 15:46:00,36.0,0.8,28.88,ENE,65,0.0,4.5,22,0.00,,---,0.00,VWS V14.01,2013-03-04 20:46:00,
2013-03-04 15:51:00,36.0,0.8,28.88,ENE,77,3.1,6.7,22,0.00,,---,0.00,VWS V14.01,2013-03-04 20:51:00,
2013-03-04 15:56:00,36.0,0.8,28.88,North,351,6.3,7.8,22,0.00,,---,0.00,VWS V14.01,2013-03-04 20:56:00,
2013-03-04 16:01:00,35.8,0.7,28.88,ENE,60,0.0,5.4,22,0.00,,---,0.00,VWS V14.01,2013-03-04 21:01:00,
2013-03-04 16:06:00,35.8,0.7,28.88,NE,36,0.0,3.6,22,0.00,,---,0.00,VWS V14.01,2013-03-04 21:06:00,
2013-03-04 16:11:00,35.6,0.5,28.88,NW,314,3.6,4.0,22,0.00,,---,0.00,VWS V14.01,2013-03-04 21:11:00,
2013-03-04 16:16:00,35.6,0.5,28.88,NNE,12,3.1,4.0,22,0.00,,---,0.00,VWS V14.01,2013-03-04 21:16:00,
2013-03-04 16:21:00,35.6,0.5,28.88,SE,138,0.0,6.3,22,0.00,,---,0.00,VWS V14.01,2013-03-04 21:21:00,
2013-03-04 16:26:00,35.6,0.5,28.88,NNW,347,3.6,4.9,22,0.00,,---,0.00,VWS V14.01,2013-03-04 21:26:00,
2013-03-04 16:31:00,35.4,0.4,28.91,East,83,2.7,6.3,22,0.00,,---,0.00,VWS V14.01,2013-03-04 21:31:00,
2013-03-04 16:36:00,35.4,0.4,28.91,NNW,337,4.9,4.9,22,0.00,,---,0.00,VWS V14.01,2013-03-04 21:36:00,
2013-03-04 16:41:00,35.1,0.1,28.91,East,92,3.6,5.8,22,0.00,,---,0.00,VWS V14.01,2013-03-04 21:41:00,
2013-03-04 16:46:00,34.9,-0.1,28.91,NW,308,0.0,0.0,22,0.00,,---,0.00,VWS V14.01,2013-03-04 21:46:00,
2013-03-04 16:51:00,34.9,-0.1,28.91,NE,44,0.0,0.0,22,0.00,,---,0.00,VWS V14.01,2013-03-04 21:51:00,
2013-03-04 16:56:00,34.5,-0.4,28.91,WNW,297,2.7,4.5,22,0.00,,---,0.00,VWS V14.01,2013-03-04 21:56:00,
2013-03-04 17:01:00,34.3,-0.6,28.91,ENE,66,4.5,5.4,22,0.00,,---,0.00,VWS V14.01,2013-03-04 22:01:00,
2013-03-04 17:06:00,34.0,-0.9,28.91,North,0,2.7,4.5,22,0.00,,---,0.00,VWS V14.01,2013-03-04 22:06:00,
2013-03-04 17:11:00,33.8,-1.0,28.91,ENE,75,4.0,4.0,22,0.00,,---,0.00,VWS V14.01,2013-03-04 22:11:00,
2013-03-04 17:16:00,33.6,-1.2,28.91,ENE,77,0.0,0.0,22,0.00,,---,0.00,VWS V14.01,2013-03-04 22:16:00,
2013-03-04 17:21:00,33.4,-1.3,28.91,NE,43,3.6,6.3,22,0.00,,---,0.00,VWS V14.01,2013-03-04 22:21:00,
2013-03-04 17:26:00,33.1,-1.6,28.91,NNE,19,0.0,4.0,22,0.00,,---,0.00,VWS V14.01,2013-03-04 22:26:00,
2013-03-04 17:31:00,33.1,-1.6,28.91,NNW,343,0.0,3.6,22,0.00,,---,0.00,VWS V14.01,2013-03-04 22:31:00,
2013-03-04 17:36:00,32.7,-1.0,28.91,North,5,0.0,4.0,23,0.00,,---,0.00,VWS V14.01,2013-03-04 22:36:00,
2013-03-04 17:41:00,32.7,-1.0,28.91,WNW,301,4.0,5.8,23,0.00,,---,0.00,VWS V14.01,2013-03-04 22:41:00,
2013-03-04 17:46:00,32.7,-1.0,28.94,NNE,29,2.7,4.9,23,0.00,,---,0.00,VWS V14.01,2013-03-04 22:46:00,
2013-03-04 17:51:00,32.5,0.6,28.94,NE,52,3.6,4.0,25,0.00,,---,0.00,VWS V14.01,2013-03-04 22:51:00,
2013-03-04 17:54:00,32.4,0.5,28.94,North,351,2.7,4.5,25,0.00,,---,0.00,VWS V14.01,2013-03-04 22:54:00,
2013-03-04 17:55:00,32.4,0.5,28.94,North,351,3.1,4.9,25,0.00,,---,0.00,VWS V14.01,2013-03-04 22:55:00,
2013-03-04 18:00:00,32.4,0.5,28.94,NNW,339,0.0,0.0,25,0.00,,---,0.00,VWS V14.01,2013-03-04 23:00:00,
2013-03-04 18:05:00,32.2,0.3,28.94,NW,321,0.0,4.0,25,0.00,,---,0.00,VWS V14.01,2013-03-04 23:05:00,
2013-03-04 18:10:00,32.2,0.3,28.94,NNW,336,0.0,0.0,25,0.00,,---,0.00,VWS V14.01,2013-03-04 23:10:00,
2013-03-04 18:15:00,32.2,0.3,28.94,NE,40,3.6,4.0,25,0.00,,---,0.00,VWS V14.01,2013-03-04 23:15:00,
2013-03-04 18:20:00,32.0,0.2,28.94,NW,311,0.0,0.0,25,0.00,,---,0.00,VWS V14.01,2013-03-04 23:20:00,
2013-03-04 18:25:00,31.8,0.0,28.94,NNW,340,0.0,5.4,25,0.00,,---,0.00,VWS V14.01,2013-03-04 23:25:00,
2013-03-04 18:30:00,31.6,-0.1,28.94,NNW,335,3.6,4.9,25,0.00,,---,0.00,VWS V14.01,2013-03-04 23:30:00,
2013-03-04 18:35:00,31.5,-0.3,28.94,ENE,63,0.0,3.6,25,0.00,,---,0.00,VWS V14.01,2013-03-04 23:35:00,
2013-03-04 18:40:00,31.5,-0.3,28.94,NE,40,0.0,4.5,25,0.00,,---,0.00,VWS V14.01,2013-03-04 23:40:00,
2013-03-04 18:45:00,31.3,-0.4,28.97,North,5,0.0,4.0,25,0.00,,---,0.00,VWS V14.01,2013-03-04 23:45:00,
2013-03-04 18:50:00,31.1,-0.6,28.97,SE,126,0.0,3.6,25,0.00,,---,0.00,VWS V14.01,2013-03-04 23:50:00,
2013-03-04 18:55:00,31.1,-0.6,28.97,NNW,347,0.0,5.4,25,0.00,,---,0.00,VWS V14.01,2013-03-04 23:55:00,
2013-03-04 19:00:00,30.9,-0.8,28.97,North,351,0.0,4.5,25,0.00,,---,0.00,VWS V14.01,2013-03-05 00:00:00,
2013-03-04 19:05:00,30.6,1.4,28.97,North,0,0.0,0.0,28,0.00,,---,0.00,VWS V14.01,2013-03-05 00:05:00,
2013-03-04 19:10:00,30.4,1.2,28.97,North,351,3.1,3.1,28,0.00,,---,0.00,VWS V14.01,2013-03-05 00:10:00,
2013-03-04 19:15:00,30.2,1.0,28.97,North,2,0.0,5.8,28,0.00,,---,0.00,VWS V14.01,2013-03-05 00:15:00,
2013-03-04 19:20:00,30.4,1.2,28.97,WNW,302,0.0,3.6,28,0.00,,---,0.00,VWS V14.01,2013-03-05 00:20:00,
2013-03-04 19:25:00,30.2,2.5,28.97,South,173,0.0,0.0,30,0.00,,---,0.00,VWS V14.01,2013-03-05 00:25:00,
2013-03-04 19:30:00,30.2,2.5,28.97,North,0,4.0,4.0,30,0.00,,---,0.00,VWS V14.01,2013-03-05 00:30:00,
2013-03-04 19:35:00,30.0,2.3,28.97,North,351,0.0,4.9,30,0.00,,---,0.00,VWS V14.01,2013-03-05 00:35:00,
2013-03-04 19:40:00,29.8,2.2,28.97,North,351,0.0,4.0,30,0.00,,---,0.00,VWS V14.01,2013-03-05 00:40:00,
2013-03-04 19:45:00,29.7,2.7,28.97,North,11,0.0,3.6,31,0.00,,---,0.00,VWS V14.01,2013-03-05 00:45:00,
2013-03-04 19:50:00,29.7,2.7,28.97,North,7,3.1,4.0,31,0.00,,---,0.00,VWS V14.01,2013-03-05 00:50:00,
2013-03-04 19:55:00,29.5,2.6,28.97,NW,317,3.6,4.0,31,0.00,,---,0.00,VWS V14.01,2013-03-05 00:55:00,
2013-03-04 20:00:00,29.5,2.6,28.97,North,6,2.7,2.7,31,0.00,,---,0.00,VWS V14.01,2013-03-05 01:00:00,
2013-03-04 20:05:00,29.5,2.6,28.97,North,3,0.0,3.1,31,0.00,,---,0.00,VWS V14.01,2013-03-05 01:05:00,
2013-03-04 20:10:00,29.3,2.4,28.97,North,4,4.9,4.9,31,0.00,,---,0.00,VWS V14.01,2013-03-05 01:10:00,
2013-03-04 20:15:00,29.3,3.1,28.97,NNE,12,0.0,2.7,32,0.00,,---,0.00,VWS V14.01,2013-03-05 01:15:00,
2013-03-04 20:20:00,29.3,3.1,28.97,NE,48,4.0,5.8,32,0.00,,---,0.00,VWS V14.01,2013-03-05 01:20:00,
2013-03-04 20:25:00,29.1,2.3,28.97,North,7,0.0,4.0,31,0.00,,---,0.00,VWS V14.01,2013-03-05 01:25:00,
2013-03-04 20:30:00,29.1,2.3,28.97,NNW,339,4.0,4.0,31,0.00,,---,0.00,VWS V14.01,2013-03-05 01:30:00,
2013-03-04 20:35:00,29.1,2.3,28.97,NNW,329,3.1,4.5,31,0.00,,---,0.00,VWS V14.01,2013-03-05 01:35:00,
2013-03-04 20:40:00,29.1,2.3,28.97,North,351,0.0,5.4,31,0.00,,---,0.00,VWS V14.01,2013-03-05 01:40:00,
2013-03-04 20:45:00,28.9,2.1,29.00,North,2,3.1,4.0,31,0.00,,---,0.00,VWS V14.01,2013-03-05 01:45:00,
2013-03-04 20:50:00,28.9,2.1,29.00,NNE,33,3.6,4.5,31,0.00,,---,0.00,VWS V14.01,2013-03-05 01:50:00,
2013-03-04 20:55:00,28.9,2.1,29.00,ENE,76,3.1,4.0,31,0.00,,---,0.00,VWS V14.01,2013-03-05 01:55:00,
2013-03-04 21:00:00,28.9,2.1,29.00,NNW,346,0.0,0.0,31,0.00,,---,0.00,VWS V14.01,2013-03-05 02:00:00,
2013-03-04 21:05:00,28.9,2.1,29.00,North,10,3.6,3.6,31,0.00,,---,0.00,VWS V14.01,2013-03-05 02:05:00,
2013-03-04 21:10:00,28.9,2.1,29.00,NNW,342,0.0,3.1,31,0.00,,---,0.00,VWS V14.01,2013-03-05 02:10:00,
2013-03-04 21:15:00,29.1,2.3,29.00,North,351,0.0,5.4,31,0.00,,---,0.00,VWS V14.01,2013-03-05 02:15:00,
2013-03-04 21:20:00,29.1,3.0,29.00,NNW,341,3.1,5.4,32,0.00,,---,0.00,VWS V14.01,2013-03-05 02:20:00,
2013-03-04 21:25:00,29.3,2.4,29.00,North,0,3.1,4.5,31,0.00,,---,0.00,VWS V14.01,2013-03-05 02:25:00,
2013-03-04 21:30:00,29.5,2.6,29.00,North,8,3.6,4.5,31,0.00,,---,0.00,VWS V14.01,2013-03-05 02:30:00,
2013-03-04 21:35:00,29.5,2.6,29.00,NNE,16,3.6,4.0,31,0.00,,---,0.00,VWS V14.01,2013-03-05 02:35:00,
2013-03-04 21:40:00,29.5,2.6,29.00,North,9,4.5,4.9,31,0.00,,---,0.00,VWS V14.01,2013-03-05 02:40:00,
2013-03-04 21:45:00,29.7,2.7,29.00,North,3,4.9,4.9,31,0.00,,---,0.00,VWS V14.01,2013-03-05 02:45:00,
2013-03-04 21:50:00,29.7,2.7,29.00,North,0,6.3,6.3,31,0.00,,---,0.00,VWS V14.01,2013-03-05 02:50:00,
2013-03-04 21:55:00,29.7,2.7,29.00,North,4,4.9,5.8,31,0.00,,---,0.00,VWS V14.01,2013-03-05 02:55:00,
2013-03-04 22:00:00,29.7,2.7,29.03,North,4,4.5,6.3,31,0.00,,---,0.00,VWS V14.01,2013-03-05 03:00:00,
2013-03-04 22:05:00,29.7,2.7,29.03,NNW,337,4.5,5.8,31,0.00,,---,0.00,VWS V14.01,2013-03-05 03:05:00,
2013-03-04 22:10:00,29.7,2.7,29.03,North,351,3.1,6.7,31,0.00,,---,0.00,VWS V14.01,2013-03-05 03:10:00,
2013-03-04 22:15:00,29.7,2.7,29.00,ENE,57,3.6,6.7,31,0.00,,---,0.00,VWS V14.01,2013-03-05 03:15:00,
2013-03-04 22:20:00,29.8,2.9,29.00,North,0,4.9,5.8,31,0.00,,---,0.00,VWS V14.01,2013-03-05 03:20:00,
2013-03-04 22:25:00,29.7,2.7,29.00,North,0,4.9,4.9,31,0.00,,---,0.00,VWS V14.01,2013-03-05 03:25:00,
2013-03-04 22:30:00,29.7,2.7,29.00,North,8,4.0,6.7,31,0.00,,---,0.00,VWS V14.01,2013-03-05 03:30:00,
2013-03-04 22:35:00,29.7,2.7,29.00,NNW,345,6.7,9.6,31,0.00,,---,0.00,VWS V14.01,2013-03-05 03:35:00,
2013-03-04 22:40:00,29.7,2.7,29.00,North,10,2.7,4.9,31,0.00,,---,0.00,VWS V14.01,2013-03-05 03:40:00,
2013-03-04 22:45:00,29.7,2.7,29.03,North,0,3.6,5.4,31,0.00,,---,0.00,VWS V14.01,2013-03-05 03:45:00,
2013-03-04 22:50:00,29.7,2.7,29.03,North,351,6.3,6.3,31,0.00,,---,0.00,VWS V14.01,2013-03-05 03:50:00,
2013-03-04 22:55:00,29.7,2.7,29.03,NNW,340,0.0,6.7,31,0.00,,---,0.00,VWS V14.01,2013-03-05 03:55:00,
2013-03-04 23:00:00,29.7,2.7,29.03,North,0,5.8,5.8,31,0.00,,---,0.00,VWS V14.01,2013-03-05 04:00:00,
2013-03-04 23:05:00,29.5,2.6,29.03,West,275,4.0,5.4,31,0.00,,---,0.00,VWS V14.01,2013-03-05 04:05:00,
2013-03-04 23:10:00,29.5,2.6,29.03,NNW,336,4.0,5.4,31,0.00,,---,0.00,VWS V14.01,2013-03-05 04:10:00,
2013-03-04 23:15:00,29.3,2.4,29.03,North,351,2.7,4.5,31,0.00,,---,0.00,VWS V14.01,2013-03-05 04:15:00,
2013-03-04 23:20:00,29.3,3.1,29.03,NNW,341,3.6,4.9,32,0.00,,---,0.00,VWS V14.01,2013-03-05 04:20:00,
2013-03-04 23:25:00,29.1,3.0,29.03,NNE,12,3.6,4.0,32,0.00,,---,0.00,VWS V14.01,2013-03-05 04:25:00,
2013-03-04 23:30:00,29.1,3.0,29.03,East,80,0.0,3.1,32,0.00,,---,0.00,VWS V14.01,2013-03-05 04:30:00,
2013-03-04 23:35:00,29.1,3.0,29.03,North,351,4.9,4.9,32,0.00,,---,0.00,VWS V14.01,2013-03-05 04:35:00,
2013-03-04 23:40:00,28.9,2.8,29.03,North,3,0.0,0.0,32,0.00,,---,0.00,VWS V14.01,2013-03-05 04:40:00,
2013-03-04 23:45:00,28.9,2.8,29.03,North,351,0.0,3.1,32,0.00,,---,0.00,VWS V14.01,2013-03-05 04:45:00,
2013-03-04 23:50:00,28.9,2.8,29.03,North,351,0.0,0.0,32,0.00,,---,0.00,VWS V14.01,2013-03-05 04:50:00,
2013-03-04 23:55:00,28.9,2.8,29.03,North,351,2.7,2.7,32,0.00,,---,0.00,VWS V14.01,2013-03-05 04:55:00,